createdAt,value
2018-04-14T00:00:40.219Z,13.90
2018-04-14T00:03:08.321Z,13.90
2018-04-14T00:05:36.438Z,13.90
2018-04-14T00:08:04.531Z,13.90
2018-04-14T00:10:32.650Z,13.90
2018-04-14T00:13:01.528Z,13.80
2018-04-14T00:15:29.644Z,13.80
2018-04-14T00:17:57.752Z,13.80
2018-04-14T00:20:26.626Z,13.70
2018-04-14T00:22:54.751Z,13.70
2018-04-14T00:25:22.860Z,13.70
2018-04-14T00:27:50.965Z,13.70
2018-04-14T00:30:19.089Z,13.70
2018-04-14T00:32:47.193Z,13.70
2018-04-14T00:35:15.291Z,13.70
2018-04-14T00:37:43.412Z,13.60
2018-04-14T00:40:11.531Z,13.60
2018-04-14T00:42:39.632Z,13.60
2018-04-14T00:45:07.743Z,13.60
2018-04-14T00:47:35.843Z,13.60
2018-04-14T00:50:04.727Z,13.50
2018-04-14T00:52:32.820Z,13.50
2018-04-14T00:55:00.944Z,13.50
2018-04-14T00:57:29.815Z,13.50
2018-04-14T00:59:57.939Z,13.50
2018-04-14T01:02:26.052Z,13.40
2018-04-14T01:04:54.161Z,13.40
2018-04-14T01:07:22.271Z,13.40
2018-04-14T01:09:50.394Z,13.40
2018-04-14T01:12:18.500Z,13.40
2018-04-14T01:14:46.604Z,13.40
2018-04-14T01:17:14.732Z,13.40
2018-04-14T01:19:42.859Z,13.30
2018-04-14T01:22:10.980Z,13.30
2018-04-14T01:24:39.098Z,13.30
2018-04-14T01:27:07.217Z,13.30
2018-04-14T01:29:35.392Z,13.20
2018-04-14T01:32:04.255Z,13.20
2018-04-14T01:34:32.355Z,13.20
2018-04-14T01:37:01.241Z,13.20
2018-04-14T01:39:29.351Z,13.20
2018-04-14T01:41:57.459Z,13.10
2018-04-14T01:44:25.583Z,13.10
2018-04-14T01:46:53.675Z,13.10
2018-04-14T01:49:21.824Z,13.10
2018-04-14T01:51:50.699Z,13.10
2018-04-14T01:54:18.814Z,13.00
2018-04-14T01:56:47.672Z,13.10
2018-04-14T01:59:15.843Z,13.00
2018-04-14T02:01:43.964Z,13.00
2018-04-14T02:04:12.094Z,13.00
2018-04-14T02:06:40.279Z,13.00
2018-04-14T02:09:08.393Z,13.00
2018-04-14T02:11:36.503Z,13.00
2018-04-14T02:14:04.603Z,13.00
2018-04-14T02:16:32.724Z,13.00
2018-04-14T02:19:00.852Z,13.00
2018-04-14T02:21:29.750Z,12.90
2018-04-14T02:23:58.616Z,12.90
2018-04-14T02:26:26.734Z,12.90
2018-04-14T02:31:58.896Z,12.90
2018-04-14T02:34:28.553Z,12.90
2018-04-14T02:36:56.664Z,12.90
2018-04-14T02:39:24.770Z,12.90
2018-04-14T02:41:52.875Z,12.90
2018-04-14T02:44:21.752Z,12.80
2018-04-14T02:46:49.862Z,12.80
2018-04-14T02:49:17.975Z,12.80
2018-04-14T02:51:46.081Z,12.80
2018-04-14T02:54:14.176Z,12.80
2018-04-14T02:56:42.302Z,12.80
2018-04-14T02:59:10.407Z,12.80
2018-04-14T03:01:38.522Z,12.80
2018-04-14T03:04:06.723Z,12.80
2018-04-14T03:06:34.787Z,12.70
2018-04-14T03:09:02.975Z,12.70
2018-04-14T03:11:31.080Z,12.70
2018-04-14T03:13:59.201Z,12.70
2018-04-14T03:16:27.326Z,12.70
2018-04-14T03:18:55.427Z,12.70
2018-04-14T03:21:24.302Z,12.70
2018-04-14T03:23:52.409Z,12.70
2018-04-14T03:26:21.274Z,12.70
2018-04-14T03:28:49.389Z,12.70
2018-04-14T03:31:17.542Z,12.70
2018-04-14T03:33:45.643Z,12.70
2018-04-14T03:36:13.749Z,12.70
2018-04-14T03:38:41.843Z,12.70
2018-04-14T03:41:09.964Z,12.70
2018-04-14T03:43:38.830Z,12.70
2018-04-14T03:46:06.947Z,12.70
2018-04-14T03:48:35.060Z,12.70
2018-04-14T03:51:03.167Z,12.70
2018-04-14T03:53:31.335Z,12.60
2018-04-14T03:55:59.463Z,12.60
2018-04-14T03:58:28.248Z,12.60
2018-04-14T04:00:56.423Z,12.60
2018-04-14T04:03:24.625Z,12.60
2018-04-14T04:05:52.726Z,12.60
2018-04-14T04:08:21.609Z,12.60
2018-04-14T04:10:49.708Z,12.60
2018-04-14T04:13:17.814Z,12.60
2018-04-14T04:15:46.683Z,12.60
2018-04-14T04:18:14.796Z,12.60
2018-04-14T04:20:57.394Z,12.60
2018-04-14T04:23:47.647Z,12.60
2018-04-14T04:26:15.759Z,12.60
2018-04-14T04:28:43.868Z,12.60
2018-04-14T04:31:11.990Z,12.60
2018-04-14T04:33:40.091Z,12.60
2018-04-14T04:36:08.203Z,12.60
2018-04-14T04:38:36.300Z,12.60
2018-04-14T04:41:04.407Z,12.60
2018-04-14T04:43:33.287Z,12.60
2018-04-14T04:46:01.416Z,12.60
2018-04-14T04:48:29.535Z,12.60
2018-04-14T04:50:57.651Z,12.60
2018-04-14T04:53:26.520Z,12.50
2018-04-14T04:55:54.637Z,12.60
2018-04-14T04:58:22.743Z,12.60
2018-04-14T05:00:50.850Z,12.60
2018-04-14T05:03:18.962Z,12.60
2018-04-14T05:05:47.066Z,12.60
2018-04-14T05:08:15.187Z,12.60
2018-04-14T05:10:44.071Z,12.60
2018-04-14T05:13:12.315Z,12.50
2018-04-14T05:15:40.431Z,12.60
2018-04-14T05:18:08.536Z,12.60
2018-04-14T05:20:36.660Z,12.60
2018-04-14T05:23:04.785Z,12.60
2018-04-14T05:25:32.887Z,12.60
2018-04-14T05:28:01.015Z,12.60
2018-04-14T05:30:29.126Z,12.60
2018-04-14T05:32:57.231Z,12.60
2018-04-14T05:35:25.336Z,12.60
2018-04-14T05:37:53.443Z,12.60
2018-04-14T05:40:22.348Z,12.60
2018-04-14T05:42:50.459Z,12.50
2018-04-14T05:45:18.615Z,12.60
2018-04-14T05:47:46.741Z,12.60
2018-04-14T05:50:14.856Z,12.60
2018-04-14T05:52:42.967Z,12.60
2018-04-14T05:55:11.843Z,12.50
2018-04-14T05:57:39.959Z,12.50
2018-04-14T06:00:08.087Z,12.60
2018-04-14T06:02:36.212Z,12.60
2018-04-14T06:05:04.328Z,12.60
2018-04-14T06:07:33.214Z,12.50
2018-04-14T06:10:02.088Z,12.60
2018-04-14T06:12:30.191Z,12.50
2018-04-14T06:14:58.357Z,12.60
2018-04-14T06:17:26.445Z,12.50
2018-04-14T06:19:54.615Z,12.60
2018-04-14T06:22:22.775Z,12.60
2018-04-14T06:24:51.028Z,12.60
2018-04-14T06:27:19.260Z,12.50
2018-04-14T06:29:48.151Z,12.60
2018-04-14T06:32:17.043Z,12.50
2018-04-14T06:34:45.895Z,12.60
2018-04-14T06:37:14.023Z,12.60
2018-04-14T06:39:42.143Z,12.60
2018-04-14T06:42:10.239Z,12.60
2018-04-14T06:44:38.346Z,12.60
2018-04-14T06:47:07.267Z,12.60
2018-04-14T06:49:35.383Z,12.60
2018-04-14T06:52:03.508Z,12.60
2018-04-14T06:54:31.619Z,12.60
2018-04-14T06:56:59.741Z,12.60
2018-04-14T06:59:28.615Z,12.60
2018-04-14T07:01:56.728Z,12.60
2018-04-14T07:04:24.889Z,12.60
2018-04-14T07:06:52.979Z,12.60
2018-04-14T07:09:21.849Z,12.60
2018-04-14T07:11:49.971Z,12.60
2018-04-14T07:14:18.095Z,12.60
2018-04-14T07:16:46.263Z,12.60
2018-04-14T07:19:15.199Z,12.60
2018-04-14T07:21:43.346Z,12.60
2018-04-14T07:24:11.450Z,12.60
2018-04-14T07:26:40.332Z,12.60
2018-04-14T07:29:09.216Z,12.60
2018-04-14T07:31:37.306Z,12.70
2018-04-14T07:34:06.679Z,12.70
2018-04-14T07:36:34.930Z,12.70
2018-04-14T07:39:03.037Z,12.70
2018-04-14T07:41:31.156Z,12.70
2018-04-14T07:44:00.142Z,12.70
2018-04-14T07:46:28.999Z,12.70
2018-04-14T07:48:57.121Z,12.70
2018-04-14T07:51:25.983Z,12.70
2018-04-14T07:53:54.093Z,12.70
2018-04-14T07:56:22.271Z,12.70
2018-04-14T07:58:50.404Z,12.70
2018-04-14T08:01:18.519Z,12.70
2018-04-14T08:03:47.417Z,12.70
2018-04-14T08:06:16.305Z,12.70
2018-04-14T08:08:44.483Z,12.70
2018-04-14T08:11:13.382Z,12.70
2018-04-14T08:13:42.260Z,12.70
2018-04-14T08:16:10.381Z,12.70
2018-04-14T08:18:38.495Z,12.80
2018-04-14T08:21:06.711Z,12.80
2018-04-14T08:23:34.791Z,12.80
2018-04-14T08:26:02.909Z,12.80
2018-04-14T08:28:31.032Z,12.90
2018-04-14T08:30:59.908Z,12.90
2018-04-14T08:33:28.028Z,12.90
2018-04-14T08:35:56.151Z,13.00
2018-04-14T08:38:24.259Z,13.00
2018-04-14T08:40:53.163Z,13.10
2018-04-14T08:43:22.041Z,13.10
2018-04-14T08:45:50.920Z,13.20
2018-04-14T08:48:19.027Z,13.20
2018-04-14T08:50:47.163Z,13.30
2018-04-14T08:53:15.395Z,13.30
2018-04-14T08:55:43.519Z,13.30
2018-04-14T08:58:11.639Z,13.40
2018-04-14T09:00:39.775Z,13.50
2018-04-14T09:03:07.892Z,13.50
2018-04-14T09:05:35.998Z,13.50
2018-04-14T09:08:04.116Z,13.60
2018-04-14T09:10:32.237Z,13.70
2018-04-14T09:13:00.348Z,13.70
2018-04-14T09:15:28.451Z,13.80
2018-04-14T09:17:56.579Z,13.80
2018-04-14T09:20:24.767Z,13.90
2018-04-14T09:22:52.876Z,13.90
2018-04-14T09:25:20.983Z,14.00
2018-04-14T09:27:49.861Z,14.10
2018-04-14T09:30:17.979Z,14.10
2018-04-14T09:32:46.084Z,14.20
2018-04-14T09:35:14.978Z,14.30
2018-04-14T09:37:43.103Z,14.30
2018-04-14T09:40:11.217Z,14.40
2018-04-14T09:42:39.332Z,14.40
2018-04-14T09:45:07.436Z,14.50
2018-04-14T09:47:36.308Z,14.60
2018-04-14T09:50:04.425Z,14.60
2018-04-14T09:52:32.611Z,14.70
2018-04-14T09:55:00.728Z,14.70
2018-04-14T09:57:28.852Z,14.80
2018-04-14T09:59:56.955Z,14.90
2018-04-14T10:02:25.995Z,14.90
2018-04-14T10:04:54.203Z,15.00
2018-04-14T10:07:22.376Z,15.10
2018-04-14T10:09:50.516Z,15.10
2018-04-14T10:12:18.615Z,15.20
2018-04-14T10:14:47.509Z,15.30
2018-04-14T10:17:16.411Z,15.40
2018-04-14T10:19:45.302Z,15.40
2018-04-14T10:22:14.172Z,15.50
2018-04-14T10:24:42.291Z,15.50
2018-04-14T10:27:10.391Z,15.60
2018-04-14T10:29:38.536Z,15.60
2018-04-14T10:32:06.649Z,15.70
2018-04-14T10:34:34.767Z,15.70
2018-04-14T10:37:02.867Z,15.80
2018-04-14T10:39:31.009Z,15.80
2018-04-14T10:41:59.116Z,15.90
2018-04-14T10:44:28.027Z,15.90
2018-04-14T10:46:56.151Z,15.90
2018-04-14T10:49:24.260Z,16.00
2018-04-14T10:51:53.147Z,16.00
2018-04-14T10:54:21.242Z,16.00
2018-04-14T10:56:49.399Z,16.10
2018-04-14T10:59:17.491Z,16.10
2018-04-14T11:01:45.628Z,16.10
2018-04-14T11:04:13.723Z,16.10
2018-04-14T11:06:41.837Z,16.20
2018-04-14T11:09:09.959Z,16.20
2018-04-14T11:11:38.132Z,16.30
2018-04-14T11:14:06.255Z,16.30
2018-04-14T11:16:34.379Z,16.30
2018-04-14T11:19:02.482Z,16.40
2018-04-14T11:21:30.588Z,16.40
2018-04-14T11:23:58.742Z,16.40
2018-04-14T11:26:26.834Z,16.50
2018-04-14T11:28:55.712Z,16.60
2018-04-14T11:31:24.743Z,16.60
2018-04-14T11:33:52.787Z,16.70
2018-04-14T11:36:20.928Z,16.70
2018-04-14T11:38:49.028Z,16.80
2018-04-14T11:41:17.159Z,16.80
2018-04-14T11:43:45.303Z,16.90
2018-04-14T11:46:14.213Z,17.00
2018-04-14T11:48:42.343Z,17.00
2018-04-14T11:51:10.464Z,17.10
2018-04-14T11:53:38.603Z,17.10
2018-04-14T11:56:06.731Z,17.20
2018-04-14T11:58:34.897Z,17.20
2018-04-14T12:01:03.871Z,17.30
2018-04-14T12:03:31.973Z,17.30
2018-04-14T12:06:00.140Z,17.40
2018-04-14T12:08:28.285Z,17.40
2018-04-14T12:10:57.983Z,17.50
2018-04-14T12:13:26.079Z,17.50
2018-04-14T12:15:54.260Z,17.50
2018-04-14T12:18:22.394Z,17.60
2018-04-14T12:20:50.499Z,17.70
2018-04-14T12:23:18.647Z,17.70
2018-04-14T12:25:46.742Z,17.70
2018-04-14T12:28:14.876Z,17.70
2018-04-14T12:30:43.041Z,17.80
2018-04-14T12:33:11.159Z,17.80
2018-04-14T12:35:39.272Z,17.80
2018-04-14T12:38:07.388Z,17.80
2018-04-14T12:40:36.276Z,17.90
2018-04-14T12:43:05.149Z,18.00
2018-04-14T12:45:33.341Z,17.90
2018-04-14T12:48:02.242Z,18.00
2018-04-14T12:50:32.334Z,18.00
2018-04-14T12:53:00.561Z,18.00
2018-04-14T12:55:28.688Z,18.00
2018-04-14T12:57:56.849Z,18.10
2018-04-14T13:00:25.695Z,18.10
2018-04-14T13:02:54.560Z,18.10
2018-04-14T13:05:22.687Z,18.10
2018-04-14T13:07:50.787Z,18.20
2018-04-14T13:10:18.935Z,18.20
2018-04-14T13:12:47.057Z,18.20
2018-04-14T13:15:15.152Z,18.20
2018-04-14T13:17:43.272Z,18.20
2018-04-14T13:20:11.388Z,18.30
2018-04-14T13:22:39.541Z,18.30
2018-04-14T13:25:07.761Z,18.30
2018-04-14T13:27:35.871Z,18.40
2018-04-14T13:30:05.702Z,18.40
2018-04-14T13:32:34.217Z,18.40
2018-04-14T13:35:02.357Z,18.40
2018-04-14T13:37:30.464Z,18.40
2018-04-14T13:39:58.603Z,18.40
2018-04-14T13:42:26.827Z,18.40
2018-04-14T13:44:54.951Z,18.50
2018-04-14T13:47:23.839Z,18.50
2018-04-14T13:49:52.720Z,18.50
2018-04-14T13:52:21.657Z,18.50
2018-04-14T13:54:50.551Z,18.50
2018-04-14T13:57:18.618Z,18.50
2018-04-14T13:59:46.712Z,18.50
2018-04-14T14:02:14.959Z,18.50
2018-04-14T14:04:43.823Z,18.50
2018-04-14T14:07:11.939Z,18.50
2018-04-14T14:09:40.060Z,18.50
2018-04-14T14:12:08.184Z,18.50
2018-04-14T14:14:37.093Z,18.50
2018-04-14T14:17:05.243Z,18.50
2018-04-14T14:19:33.381Z,18.50
2018-04-14T14:22:02.291Z,18.50
2018-04-14T14:24:31.152Z,18.40
2018-04-14T14:26:59.288Z,18.50
2018-04-14T14:29:28.199Z,18.40
2018-04-14T14:31:57.064Z,18.40
2018-04-14T14:34:25.163Z,18.40
2018-04-14T14:36:54.067Z,18.40
2018-04-14T14:39:22.187Z,18.40
2018-04-14T14:41:50.296Z,18.40
2018-04-14T14:44:18.519Z,18.40
2018-04-14T14:46:46.692Z,18.40
2018-04-14T14:49:15.540Z,18.40
2018-04-14T14:51:43.759Z,18.40
2018-04-14T14:54:11.888Z,18.40
2018-04-14T14:56:40.018Z,18.30
2018-04-14T14:59:08.180Z,18.30
2018-04-14T15:01:36.247Z,18.30
2018-04-14T15:04:05.142Z,18.40
2018-04-14T15:06:34.023Z,18.30
2018-04-14T15:09:02.138Z,18.30
2018-04-14T15:11:30.323Z,18.30
2018-04-14T15:13:58.636Z,18.40
2018-04-14T15:16:26.719Z,18.30
2018-04-14T15:18:56.344Z,18.30
2018-04-14T15:21:25.252Z,18.30
2018-04-14T15:23:54.138Z,18.30
2018-04-14T15:26:22.245Z,18.30
2018-04-14T15:28:50.348Z,18.40
2018-04-14T15:31:18.495Z,18.30
2018-04-14T15:33:46.716Z,18.30
2018-04-14T15:36:14.827Z,18.30
2018-04-14T15:38:44.004Z,18.40
2018-04-14T15:41:12.118Z,18.40
2018-04-14T15:43:40.991Z,18.40
2018-04-14T15:46:09.865Z,18.40
2018-04-14T15:48:38.015Z,18.40
2018-04-14T15:51:06.107Z,18.40
2018-04-14T15:53:34.283Z,18.40
2018-04-14T15:56:02.384Z,18.50
2018-04-14T15:58:30.516Z,18.50
2018-04-14T16:00:59.399Z,18.50
2018-04-14T16:03:27.519Z,18.50
2018-04-14T16:05:55.641Z,18.50
2018-04-14T16:08:23.794Z,18.50
2018-04-14T16:10:51.920Z,18.60
2018-04-14T16:13:20.023Z,18.60
2018-04-14T16:15:48.436Z,18.60
2018-04-14T16:18:16.676Z,18.60
2018-04-14T16:20:44.842Z,18.60
2018-04-14T16:23:13.004Z,18.70
2018-04-14T16:25:41.911Z,18.70
2018-04-14T16:28:10.044Z,18.70
2018-04-14T16:30:38.171Z,18.70
2018-04-14T16:33:06.383Z,18.70
2018-04-14T16:35:34.763Z,18.70
2018-04-14T16:38:02.914Z,18.70
2018-04-14T16:40:31.056Z,18.70
2018-04-14T16:42:59.937Z,18.70
2018-04-14T16:45:28.034Z,18.70
2018-04-14T16:47:56.159Z,18.70
2018-04-14T16:50:24.288Z,18.70
2018-04-14T16:52:52.540Z,18.70
2018-04-14T16:55:21.066Z,18.70
2018-04-14T16:57:49.172Z,18.70
2018-04-14T17:00:17.319Z,18.70
2018-04-14T17:02:45.443Z,18.70
2018-04-14T17:05:14.396Z,18.70
2018-04-14T17:07:42.517Z,18.70
2018-04-14T17:10:11.425Z,18.70
2018-04-14T17:12:39.627Z,18.70
2018-04-14T17:15:07.750Z,18.70
2018-04-14T17:17:35.883Z,18.70
2018-04-14T17:20:03.990Z,18.70
2018-04-14T17:22:32.135Z,18.60
2018-04-14T17:25:00.314Z,18.60
2018-04-14T17:27:29.203Z,18.60
2018-04-14T17:29:58.103Z,18.60
2018-04-14T17:32:26.225Z,18.60
2018-04-14T17:34:54.313Z,18.50
2018-04-14T17:37:22.431Z,18.50
2018-04-14T17:39:51.327Z,18.50
2018-04-14T17:42:20.222Z,18.40
2018-04-14T17:44:49.176Z,18.30
2018-04-14T17:47:17.331Z,18.30
2018-04-14T17:49:45.514Z,18.30
2018-04-14T17:52:13.760Z,18.20
2018-04-14T17:54:41.912Z,18.20
2018-04-14T17:57:11.261Z,18.10
2018-04-14T17:59:39.383Z,18.10
2018-04-14T18:02:07.581Z,18.10
2018-04-14T18:04:36.537Z,17.90
2018-04-14T18:07:04.679Z,17.90
2018-04-14T18:09:32.810Z,17.90
2018-04-14T18:12:01.221Z,17.80
2018-04-14T18:14:29.320Z,17.80
2018-04-14T18:16:57.418Z,17.70
2018-04-14T18:19:25.656Z,17.70
2018-04-14T18:21:53.783Z,17.60
2018-04-14T18:24:22.000Z,17.50
2018-04-14T18:26:50.130Z,17.50
2018-04-14T18:29:18.247Z,17.40
2018-04-14T18:31:46.353Z,17.30
2018-04-14T18:34:14.465Z,17.30
2018-04-14T18:36:42.575Z,17.20
2018-04-14T18:39:10.688Z,17.10
2018-04-14T18:41:38.803Z,17.00
2018-04-14T18:44:07.702Z,16.90
2018-04-14T18:46:35.837Z,16.90
2018-04-14T18:49:03.968Z,16.80
2018-04-14T18:51:32.076Z,16.80
2018-04-14T18:54:00.959Z,16.60
2018-04-14T18:56:30.054Z,16.50
2018-04-14T18:58:58.219Z,16.50
2018-04-14T19:01:26.334Z,16.40
2018-04-14T19:03:54.459Z,16.30
2018-04-14T19:06:22.718Z,16.30
2018-04-14T19:08:50.955Z,16.20
2018-04-14T19:11:19.240Z,16.10
2018-04-14T19:13:47.386Z,16.00
2018-04-14T19:16:15.538Z,16.00
2018-04-14T19:18:44.426Z,15.80
2018-04-14T19:21:12.533Z,15.80
2018-04-14T19:23:40.715Z,15.70
2018-04-14T19:26:09.636Z,15.60
2018-04-14T19:28:38.529Z,15.50
2018-04-14T19:31:06.687Z,15.50
2018-04-14T19:33:34.795Z,15.50
2018-04-14T19:36:02.927Z,15.40
2018-04-14T19:38:31.044Z,15.30
2018-04-14T19:40:59.936Z,15.20
2018-04-14T19:43:28.839Z,15.10
2018-04-14T19:45:57.744Z,15.00
2018-04-14T19:48:25.850Z,15.00
2018-04-14T19:50:53.969Z,15.00
2018-04-14T19:56:24.147Z,14.80
2018-04-14T19:58:52.268Z,14.80
2018-04-14T20:01:20.417Z,14.70
2018-04-14T20:03:48.545Z,14.70
2018-04-14T20:06:16.677Z,14.60
2018-04-14T20:08:44.786Z,14.50
2018-04-14T20:11:13.699Z,14.40
2018-04-14T20:13:41.851Z,14.40
2018-04-14T20:16:10.027Z,14.40
2018-04-14T20:18:38.132Z,14.30
2018-04-14T20:21:06.273Z,14.20
2018-04-14T20:23:34.394Z,14.20
2018-04-14T20:26:02.509Z,14.20
2018-04-14T20:28:30.621Z,14.10
2018-04-14T20:30:59.492Z,14.00
2018-04-14T20:33:27.603Z,14.00
2018-04-14T20:35:56.467Z,13.90
2018-04-14T20:38:24.601Z,13.90
2018-04-14T20:40:52.752Z,13.90
2018-04-14T20:43:21.607Z,13.80
2018-04-14T20:45:49.704Z,13.80
2018-04-14T20:48:17.825Z,13.70
2018-04-14T20:50:45.986Z,13.70
2018-04-14T20:53:14.111Z,13.60
2018-04-14T20:55:42.278Z,13.60
2018-04-14T20:58:10.389Z,13.50
2018-04-14T21:00:38.493Z,13.50
2018-04-14T21:03:06.611Z,13.50
2018-04-14T21:05:35.480Z,13.40
2018-04-14T21:08:03.596Z,13.40
2018-04-14T21:10:31.719Z,13.40
2018-04-14T21:12:59.877Z,13.30
2018-04-14T21:15:28.753Z,13.20
2018-04-14T21:17:56.866Z,13.20
2018-04-14T21:20:25.007Z,13.20
2018-04-14T21:22:53.129Z,13.10
2018-04-14T21:25:21.263Z,13.10
2018-04-14T21:27:49.367Z,13.10
2018-04-14T21:30:17.468Z,13.00
2018-04-14T21:32:45.576Z,13.00
2018-04-14T21:35:13.716Z,13.00
2018-04-14T21:37:41.848Z,13.00
2018-04-14T21:40:09.955Z,12.90
2018-04-14T21:42:38.080Z,12.90
2018-04-14T21:45:06.177Z,12.90
2018-04-14T21:47:34.300Z,12.80
2018-04-14T21:50:02.433Z,12.80
2018-04-14T21:52:30.555Z,12.70
2018-04-14T21:54:58.679Z,12.70
2018-04-14T21:57:26.769Z,12.70
2018-04-14T21:59:55.754Z,12.60
2018-04-14T22:02:23.852Z,12.60
2018-04-14T22:04:52.739Z,12.50
2018-04-14T22:07:20.830Z,12.50
2018-04-14T22:09:49.712Z,12.50
2018-04-14T22:12:18.600Z,12.40
2018-04-14T22:14:46.712Z,12.40
2018-04-14T22:17:14.844Z,12.40
2018-04-14T22:19:43.045Z,12.30
2018-04-14T22:22:11.944Z,12.30
2018-04-14T22:24:40.049Z,12.30
2018-04-14T22:27:08.176Z,12.30
2018-04-14T22:29:36.279Z,12.20
2018-04-14T22:32:05.171Z,12.10
2018-04-14T22:34:34.052Z,12.10
2018-04-14T22:37:02.159Z,12.10
2018-04-14T22:39:30.367Z,12.10
2018-04-14T22:41:58.983Z,12.00
2018-04-14T22:44:27.085Z,12.00
2018-04-14T22:46:55.992Z,11.90
2018-04-14T22:49:24.089Z,11.90
2018-04-14T22:51:52.266Z,11.90
2018-04-14T22:54:20.344Z,11.90
2018-04-14T22:56:48.449Z,11.80
2018-04-14T22:59:16.593Z,11.80
2018-04-14T23:01:44.700Z,11.80
2018-04-14T23:04:12.824Z,11.80
2018-04-14T23:06:41.683Z,11.70
2018-04-14T23:09:09.928Z,11.70
2018-04-14T23:11:38.025Z,11.70
2018-04-14T23:14:06.151Z,11.60
2018-04-14T23:16:34.295Z,11.60
2018-04-14T23:19:02.407Z,11.60
2018-04-14T23:21:30.536Z,11.60
2018-04-14T23:23:58.680Z,11.50
2018-04-14T23:26:26.822Z,11.50
2018-04-14T23:28:55.704Z,11.50
2018-04-14T23:31:23.820Z,11.40
2018-04-14T23:33:52.001Z,11.40
2018-04-14T23:36:20.065Z,11.40
2018-04-14T23:38:48.196Z,11.40
2018-04-14T23:41:16.304Z,11.40
2018-04-14T23:43:45.183Z,11.30
2018-04-14T23:46:13.280Z,11.30
2018-04-14T23:48:41.400Z,11.30
2018-04-14T23:51:09.511Z,11.30
2018-04-14T23:53:37.780Z,11.20
2018-04-14T23:56:05.895Z,11.20
2018-04-14T23:58:34.860Z,11.20
